Terminal Aerodrome Forecast
Issued by NWS

Home | Current Version | Previous Version | Text Only | Print | Product List | Glossary On
Versions: 1 2 3 4 5 6 7 8 9 10 11 12 13 14 15 16 17 18
000
FTUS45 KGJT 232327
TAFTEX
TAF
KTEX 232327Z 2400/2424 34004KT P6SM SKC
     FM240400 16004KT P6SM SKC
     FM241600 27005KT P6SM SKC
     FM241900 28009G18KT P6SM FEW200=

USA.gov is the U.S. government's official web portal to all federal, state and local government web resources and services.